Campbellford, Canada
Current Conditions -  °F | °C
As of 9:00 PM on Saturday 22 Nov 2014 (Local Time) from CYTR Reporting Station
Rain Showers Rain Showers  
Wind Chill: 37°   Ceiling: 700
Heat Index: 43°   Visibility: 4mi
Dew Point: 41°   Wind: 9mph
Humidity: 93%   Direction: 230°SW
Pressure: 29.92"   Gusts: NA
Location:  44.3°N, 77.8°W
Report Text: CYTR 230200Z 23008KT 4SM -SHRA BR OVC007 06/05 A2992 RMK SF8 SLP136
Loading
Personal Weather Stations






























Interactive Weather Map New forecast layout! Learn more

10-Day Weather Forecast

Advertisements
Track Severe Weather on mobile